createdAt,value
2017-08-11T00:01:03.026Z,3.00
2017-08-11T00:03:30.485Z,2.03
2017-08-11T00:05:57.952Z,3.20
2017-08-11T00:08:25.480Z,2.87
2017-08-11T00:10:53.677Z,2.73
2017-08-11T00:13:21.188Z,3.33
2017-08-11T00:15:48.721Z,2.10
2017-08-11T00:18:16.204Z,3.60
2017-08-11T00:20:44.449Z,3.67
2017-08-11T00:23:11.899Z,5.30
2017-08-11T00:25:39.349Z,5.60
2017-08-11T00:28:06.820Z,3.87
2017-08-11T00:30:34.262Z,3.20
2017-08-11T00:33:01.751Z,3.57
2017-08-11T00:35:29.201Z,3.67
2017-08-11T00:37:56.660Z,3.23
2017-08-11T00:40:24.143Z,1.97
2017-08-11T00:42:52.365Z,1.70
2017-08-11T00:45:19.806Z,2.77
2017-08-11T00:47:47.288Z,1.60
2017-08-11T00:50:14.734Z,2.00
2017-08-11T00:52:42.188Z,2.30
2017-08-11T00:55:09.665Z,2.20
2017-08-11T00:57:37.117Z,3.30
2017-08-11T01:00:04.581Z,3.40
2017-08-11T01:02:32.021Z,3.83
2017-08-11T01:04:59.490Z,2.90
2017-08-11T01:07:26.952Z,3.17
2017-08-11T01:09:54.395Z,3.93
2017-08-11T01:12:21.875Z,2.87
2017-08-11T01:14:50.093Z,2.73
2017-08-11T01:17:17.524Z,2.87
2017-08-11T01:19:44.989Z,2.50
2017-08-11T01:22:12.428Z,3.50
2017-08-11T01:24:40.782Z,3.27
2017-08-11T01:27:08.257Z,2.60
2017-08-11T01:29:36.468Z,3.00
2017-08-11T01:32:03.948Z,3.13
2017-08-11T01:34:31.375Z,3.07
2017-08-11T01:36:58.821Z,3.30
2017-08-11T01:39:26.284Z,3.20
2017-08-11T01:41:53.728Z,2.33
2017-08-11T01:44:21.203Z,2.60
2017-08-11T01:46:48.686Z,3.40
2017-08-11T01:49:16.116Z,3.40
2017-08-11T01:51:43.589Z,2.03
2017-08-11T01:54:11.158Z,2.50
2017-08-11T01:56:38.627Z,2.30
2017-08-11T01:59:06.108Z,2.00
2017-08-11T02:01:34.351Z,2.40
2017-08-11T02:04:01.793Z,2.23
2017-08-11T02:06:29.264Z,1.47
2017-08-11T02:08:56.720Z,2.07
2017-08-11T02:11:24.192Z,1.80
2017-08-11T02:13:51.634Z,2.00
2017-08-11T02:16:19.075Z,3.07
2017-08-11T02:18:46.545Z,3.70
2017-08-11T02:21:13.998Z,1.67
2017-08-11T02:23:41.475Z,2.43
2017-08-11T02:26:08.913Z,2.57
2017-08-11T02:28:36.360Z,1.80
2017-08-11T02:31:03.832Z,1.87
2017-08-11T02:33:31.299Z,3.73
2017-08-11T02:35:58.805Z,2.70
2017-08-11T02:38:26.243Z,2.10
2017-08-11T02:40:53.743Z,1.87
2017-08-11T02:43:21.230Z,2.40
2017-08-11T02:45:48.675Z,1.97
2017-08-11T02:48:16.136Z,1.67
2017-08-11T02:50:43.615Z,1.63
2017-08-11T02:53:11.129Z,1.57
2017-08-11T02:55:38.632Z,3.30
2017-08-11T02:58:06.081Z,1.43
2017-08-11T03:00:34.296Z,1.70
2017-08-11T03:03:01.758Z,1.80
2017-08-11T03:05:29.221Z,1.63
2017-08-11T03:07:56.694Z,2.20
2017-08-11T03:10:24.135Z,2.67
2017-08-11T03:12:51.611Z,3.10
2017-08-11T03:15:19.084Z,2.70
2017-08-11T03:17:47.299Z,1.50
2017-08-11T03:20:14.780Z,1.87
2017-08-11T03:22:42.268Z,6.23
2017-08-11T03:25:10.517Z,3.47
2017-08-11T03:27:37.972Z,1.93
2017-08-11T03:30:05.428Z,2.30
2017-08-11T03:32:32.888Z,1.50
2017-08-11T03:35:00.324Z,1.67
2017-08-11T03:37:27.832Z,1.77
2017-08-11T03:39:55.272Z,1.40
2017-08-11T03:42:22.754Z,2.80
2017-08-11T03:44:50.969Z,1.57
2017-08-11T03:47:18.452Z,1.93
2017-08-11T03:49:45.909Z,1.80
2017-08-11T03:52:13.357Z,2.50
2017-08-11T03:54:40.834Z,2.70
2017-08-11T03:57:09.060Z,1.50
2017-08-11T03:59:36.523Z,2.20
2017-08-11T04:02:03.998Z,2.47
2017-08-11T04:04:31.446Z,2.20
2017-08-11T04:06:58.910Z,1.50
2017-08-11T04:09:26.348Z,3.20
2017-08-11T04:11:53.827Z,3.60
2017-08-11T04:14:21.276Z,3.73
2017-08-11T04:16:48.838Z,5.03
2017-08-11T04:19:16.305Z,5.03
2017-08-11T04:21:43.751Z,4.80
2017-08-11T04:24:11.192Z,4.90
2017-08-11T04:26:38.674Z,6.90
2017-08-11T04:29:06.120Z,5.33
2017-08-11T04:31:33.581Z,5.63
2017-08-11T04:34:01.063Z,6.17
2017-08-11T04:36:29.309Z,5.90
2017-08-11T04:38:56.855Z,4.90
2017-08-11T04:41:24.332Z,5.07
2017-08-11T04:43:51.779Z,5.10
2017-08-11T04:46:19.259Z,5.53
2017-08-11T04:48:47.473Z,6.00
2017-08-11T04:51:14.927Z,4.47
2017-08-11T04:53:42.398Z,5.30
2017-08-11T04:56:09.839Z,5.10
2017-08-11T04:58:37.331Z,5.60
2017-08-11T05:01:04.825Z,6.53
2017-08-11T05:03:33.062Z,4.47
2017-08-11T05:06:00.539Z,4.47
2017-08-11T05:08:28.078Z,4.43
2017-08-11T05:10:55.557Z,6.70
2017-08-11T05:13:23.764Z,6.70
2017-08-11T05:15:51.209Z,5.00
2017-08-11T05:18:18.672Z,5.23
2017-08-11T05:20:46.125Z,5.03
2017-08-11T05:23:13.636Z,3.70
2017-08-11T05:25:41.070Z,4.77
2017-08-11T05:28:08.507Z,3.67
2017-08-11T05:30:36.064Z,3.60
2017-08-11T05:33:03.743Z,2.73
2017-08-11T05:35:31.219Z,4.60
2017-08-11T05:37:58.678Z,2.20
2017-08-11T05:40:26.128Z,3.87
2017-08-11T05:42:53.693Z,1.70
2017-08-11T05:45:21.140Z,2.50
2017-08-11T05:47:48.579Z,2.07
2017-08-11T05:50:16.052Z,2.60
2017-08-11T05:52:43.487Z,2.07
2017-08-11T05:55:11.061Z,2.50
2017-08-11T05:57:38.507Z,1.90
2017-08-11T06:00:05.965Z,3.97
2017-08-11T06:02:33.491Z,2.67
2017-08-11T06:05:00.923Z,4.40
2017-08-11T06:07:29.134Z,3.30
2017-08-11T06:09:56.612Z,2.63
2017-08-11T06:12:24.069Z,3.43
2017-08-11T06:14:51.520Z,2.20
2017-08-11T06:17:18.981Z,3.77
2017-08-11T06:19:46.434Z,4.87
2017-08-11T06:22:13.904Z,3.13
2017-08-11T06:24:41.372Z,2.40
2017-08-11T06:27:08.839Z,2.23
2017-08-11T06:29:37.052Z,2.50
2017-08-11T06:32:04.523Z,4.03
2017-08-11T06:34:31.998Z,3.20
2017-08-11T06:36:59.454Z,3.57
2017-08-11T06:39:27.000Z,2.80
2017-08-11T06:41:54.460Z,2.40
2017-08-11T06:44:21.905Z,2.33
2017-08-11T06:46:49.386Z,2.80
2017-08-11T06:49:16.824Z,2.40
2017-08-11T06:51:44.298Z,2.80
2017-08-11T06:54:11.779Z,2.80
2017-08-11T06:56:40.436Z,2.40
2017-08-11T06:59:07.927Z,2.27
2017-08-11T07:01:36.164Z,3.20
2017-08-11T07:04:03.600Z,3.30
2017-08-11T07:06:31.069Z,3.07
2017-08-11T07:08:58.558Z,4.30
2017-08-11T07:11:25.988Z,3.20
2017-08-11T07:13:53.449Z,3.10
2017-08-11T07:16:20.907Z,3.53
2017-08-11T07:18:48.573Z,3.27
2017-08-11T07:21:16.040Z,3.60
2017-08-11T07:23:43.579Z,2.90
2017-08-11T07:26:11.078Z,5.07
2017-08-11T07:28:38.589Z,2.70
2017-08-11T07:31:06.036Z,3.30
2017-08-11T07:33:33.545Z,4.00
2017-08-11T07:36:01.756Z,3.53
2017-08-11T07:38:29.212Z,3.50
2017-08-11T07:40:56.684Z,3.27
2017-08-11T07:43:24.128Z,3.30
2017-08-11T07:45:51.600Z,3.20
2017-08-11T07:48:19.051Z,3.27
2017-08-11T07:50:46.517Z,3.40
2017-08-11T07:53:14.075Z,2.67
2017-08-11T07:55:41.548Z,2.90
2017-08-11T07:58:09.013Z,2.93
2017-08-11T08:00:36.504Z,3.13
2017-08-11T08:03:04.707Z,2.90
2017-08-11T08:05:32.188Z,2.80
2017-08-11T08:07:59.663Z,3.80
2017-08-11T08:10:27.904Z,2.77
2017-08-11T08:12:55.345Z,3.03
2017-08-11T08:15:22.798Z,2.97
2017-08-11T08:17:50.283Z,3.33
2017-08-11T08:20:17.832Z,3.67
2017-08-11T08:22:45.285Z,2.87
2017-08-11T08:25:12.835Z,4.77
2017-08-11T08:27:40.287Z,4.03
2017-08-11T08:30:07.755Z,4.07
2017-08-11T08:32:35.216Z,3.80
2017-08-11T08:35:02.679Z,3.77
2017-08-11T08:37:30.155Z,3.27
2017-08-11T08:39:58.402Z,5.10
2017-08-11T08:42:25.888Z,3.43
2017-08-11T08:44:54.136Z,3.43
2017-08-11T08:47:21.604Z,3.73
2017-08-11T08:49:49.056Z,3.13
2017-08-11T08:52:16.613Z,3.80
2017-08-11T08:54:44.085Z,3.33
2017-08-11T08:57:12.295Z,3.47
2017-08-11T08:59:39.771Z,3.30
2017-08-11T09:02:07.221Z,3.20
2017-08-11T09:04:34.708Z,4.30
2017-08-11T09:07:02.180Z,3.87
2017-08-11T09:09:30.387Z,3.33
2017-08-11T09:11:57.828Z,4.30
2017-08-11T09:14:25.288Z,5.20
2017-08-11T09:16:52.776Z,3.40
2017-08-11T09:19:20.252Z,5.03
2017-08-11T09:21:47.705Z,5.97
2017-08-11T09:24:27.161Z,7.50
2017-08-11T09:27:17.357Z,5.43
2017-08-11T09:29:56.523Z,6.00
2017-08-11T09:32:35.874Z,6.87
2017-08-11T09:35:15.393Z,6.17
2017-08-11T09:37:42.850Z,5.20
2017-08-11T09:40:10.287Z,6.60
2017-08-11T09:42:38.524Z,6.30
2017-08-11T09:45:05.990Z,8.50
2017-08-11T09:47:33.550Z,7.83
2017-08-11T09:50:01.012Z,7.30
2017-08-11T09:52:28.495Z,7.63
2017-08-11T09:54:55.948Z,7.33
2017-08-11T09:57:24.208Z,9.80
2017-08-11T09:59:51.657Z,8.80
2017-08-11T10:02:19.100Z,10.80
2017-08-11T10:04:46.662Z,8.70
2017-08-11T10:07:14.220Z,11.10
2017-08-11T10:09:41.664Z,9.77
2017-08-11T10:12:09.150Z,9.13
2017-08-11T10:14:37.369Z,9.67
2017-08-11T10:17:04.811Z,9.87
2017-08-11T10:19:32.296Z,9.37
2017-08-11T10:21:59.868Z,10.60
2017-08-11T10:24:27.340Z,12.20
2017-08-11T10:26:54.848Z,10.40
2017-08-11T10:29:22.320Z,11.47
2017-08-11T10:31:49.776Z,10.40
2017-08-11T10:34:17.260Z,10.37
2017-08-11T10:36:44.714Z,10.47
2017-08-11T10:39:12.215Z,11.23
2017-08-11T10:41:39.657Z,10.60
2017-08-11T10:44:07.876Z,9.63
2017-08-11T10:46:35.350Z,9.40
2017-08-11T10:49:02.824Z,10.50
2017-08-11T10:51:30.412Z,10.67
2017-08-11T10:53:57.882Z,9.67
2017-08-11T10:56:25.418Z,9.80
2017-08-11T10:58:53.654Z,11.03
2017-08-11T11:01:21.130Z,11.60
2017-08-11T11:03:48.573Z,12.87
2017-08-11T11:06:16.029Z,10.60
2017-08-11T11:08:43.616Z,11.40
2017-08-11T11:11:11.871Z,9.83
2017-08-11T11:13:39.343Z,12.07
2017-08-11T11:16:07.558Z,10.20
2017-08-11T11:18:35.021Z,11.10
2017-08-11T11:21:02.490Z,10.07
2017-08-11T11:23:29.985Z,11.33
2017-08-11T11:25:58.250Z,11.00
2017-08-11T11:28:25.699Z,13.47
2017-08-11T11:30:53.188Z,16.40
2017-08-11T11:33:21.550Z,15.20
2017-08-11T11:35:49.044Z,14.67
2017-08-11T11:38:16.506Z,14.97
2017-08-11T11:40:43.990Z,16.20
2017-08-11T11:43:11.481Z,16.33
2017-08-11T11:45:39.708Z,17.70
2017-08-11T11:48:07.189Z,15.90
2017-08-11T11:50:34.748Z,15.70
2017-08-11T11:53:02.308Z,16.73
2017-08-11T11:55:29.861Z,15.87
2017-08-11T11:57:57.318Z,14.57
2017-08-11T12:00:24.796Z,16.07
2017-08-11T12:02:53.091Z,15.97
2017-08-11T12:05:21.317Z,14.70
2017-08-11T12:07:48.790Z,15.90
2017-08-11T12:10:16.246Z,16.70
2017-08-11T12:12:43.740Z,15.00
2017-08-11T12:15:11.200Z,17.53
2017-08-11T12:17:38.679Z,15.03
2017-08-11T12:20:06.168Z,17.00
2017-08-11T12:22:33.623Z,16.37
2017-08-11T12:25:01.132Z,15.87
2017-08-11T12:27:28.576Z,15.03
2017-08-11T12:29:56.103Z,13.60
2017-08-11T12:32:23.676Z,14.90
2017-08-11T12:34:51.893Z,13.10
2017-08-11T12:37:19.401Z,14.30
2017-08-11T12:39:47.619Z,13.70
2017-08-11T12:42:15.100Z,13.80
2017-08-11T12:44:42.567Z,13.97
2017-08-11T12:47:10.024Z,13.13
2017-08-11T12:49:38.540Z,12.60
2017-08-11T12:52:06.778Z,13.00
2017-08-11T12:54:34.276Z,12.10
2017-08-11T12:57:01.740Z,12.30
2017-08-11T12:59:29.197Z,9.90
2017-08-11T13:01:56.676Z,9.97
2017-08-11T13:04:24.110Z,10.60
2017-08-11T13:06:51.601Z,9.53
2017-08-11T13:09:19.063Z,10.50
2017-08-11T13:11:46.532Z,10.27
2017-08-11T13:14:14.117Z,13.13
2017-08-11T13:16:42.333Z,11.17
2017-08-11T13:19:09.788Z,12.13
2017-08-11T13:21:37.265Z,11.00
2017-08-11T13:24:04.713Z,12.93
2017-08-11T13:26:32.188Z,13.20
2017-08-11T13:28:59.755Z,14.57
2017-08-11T13:31:27.231Z,14.57
2017-08-11T13:33:55.462Z,16.40
2017-08-11T13:36:22.912Z,14.10
2017-08-11T13:38:50.488Z,15.57
2017-08-11T13:41:17.944Z,16.07
2017-08-11T13:46:20.126Z,16.00
2017-08-11T13:48:47.622Z,18.43
2017-08-11T13:51:15.858Z,18.40
2017-08-11T13:53:43.307Z,28.80
2017-08-11T13:56:10.794Z,21.03
2017-08-11T13:58:39.034Z,19.70
2017-08-11T14:01:06.500Z,19.70
2017-08-11T14:03:33.994Z,21.13
2017-08-11T14:06:02.240Z,19.00
2017-08-11T14:08:29.719Z,21.63
2017-08-11T14:10:57.951Z,20.37
2017-08-11T14:13:25.441Z,20.50
2017-08-11T14:15:52.948Z,19.73
2017-08-11T14:18:20.403Z,19.10
2017-08-11T14:20:47.915Z,18.40
2017-08-11T14:23:32.793Z,18.73
2017-08-11T14:26:00.275Z,18.63
2017-08-11T14:28:27.768Z,21.00
2017-08-11T14:30:55.221Z,20.80
2017-08-11T14:33:22.711Z,21.37
2017-08-11T14:35:50.971Z,18.80
2017-08-11T14:38:18.470Z,20.13
2017-08-11T14:40:45.928Z,16.30
2017-08-11T14:43:13.410Z,17.10
2017-08-11T14:45:40.996Z,14.50
2017-08-11T14:48:08.458Z,21.03
2017-08-11T14:50:35.923Z,16.77
2017-08-11T14:53:04.167Z,19.63
2017-08-11T14:55:31.646Z,20.67
2017-08-11T14:57:59.093Z,17.40
2017-08-11T15:00:26.540Z,17.07
2017-08-11T15:02:54.022Z,15.83
2017-08-11T15:05:22.251Z,13.03
2017-08-11T15:07:49.753Z,13.47
2017-08-11T15:10:18.010Z,14.70
2017-08-11T15:12:45.484Z,13.57
2017-08-11T15:15:13.756Z,15.60
2017-08-11T15:17:42.012Z,15.10
2017-08-11T15:20:09.590Z,14.90
2017-08-11T15:22:37.059Z,13.70
2017-08-11T15:25:04.517Z,14.30
2017-08-11T15:27:32.744Z,13.50
2017-08-11T15:30:00.228Z,14.27
2017-08-11T15:32:28.464Z,13.53
2017-08-11T15:34:55.941Z,15.60
2017-08-11T15:37:23.434Z,13.50
2017-08-11T15:39:51.677Z,16.00
2017-08-11T15:42:19.173Z,15.30
2017-08-11T15:44:47.423Z,14.53
2017-08-11T15:47:14.976Z,13.70
2017-08-11T15:49:42.471Z,15.90
2017-08-11T15:52:09.928Z,12.00
2017-08-11T15:54:37.409Z,13.27
2017-08-11T15:57:04.885Z,14.10
2017-08-11T15:59:32.417Z,12.23
2017-08-11T16:01:59.893Z,12.80
2017-08-11T16:04:27.353Z,14.83
2017-08-11T16:06:54.808Z,13.67
2017-08-11T16:09:22.283Z,13.87
2017-08-11T16:11:49.737Z,14.33
2017-08-11T16:14:17.252Z,14.30
2017-08-11T16:16:44.691Z,13.37
2017-08-11T16:19:12.174Z,13.83
2017-08-11T16:21:39.655Z,13.80
2017-08-11T16:24:07.120Z,17.10
2017-08-11T16:26:34.601Z,15.77
2017-08-11T16:29:02.919Z,15.03
2017-08-11T16:31:30.378Z,16.60
2017-08-11T16:33:57.862Z,17.83
2017-08-11T16:36:25.420Z,15.70
2017-08-11T16:38:52.942Z,16.73
2017-08-11T16:41:20.416Z,17.83
2017-08-11T16:43:47.875Z,13.70
2017-08-11T16:46:15.368Z,16.60
2017-08-11T16:48:43.640Z,19.23
2017-08-11T16:51:11.906Z,20.87
2017-08-11T16:53:39.384Z,19.77
2017-08-11T16:56:07.608Z,19.73
2017-08-11T16:58:35.102Z,20.10
2017-08-11T17:01:02.571Z,21.53
2017-08-11T17:03:30.060Z,24.70
2017-08-11T17:05:57.619Z,19.20
2017-08-11T17:08:25.093Z,21.00
2017-08-11T17:10:52.598Z,22.43
2017-08-11T17:13:20.841Z,19.63
2017-08-11T17:15:48.317Z,16.57
2017-08-11T17:18:15.782Z,15.67
2017-08-11T17:20:44.053Z,12.67
2017-08-11T17:23:12.274Z,13.50
2017-08-11T17:25:39.733Z,13.93
2017-08-11T17:28:07.221Z,12.83
2017-08-11T17:30:34.684Z,11.40
2017-08-11T17:33:02.133Z,13.20
2017-08-11T17:35:29.599Z,12.37
2017-08-11T17:37:57.073Z,12.33
2017-08-11T17:40:25.320Z,10.73
2017-08-11T17:42:52.788Z,11.90
2017-08-11T17:45:21.043Z,11.17
2017-08-11T17:47:48.531Z,12.23
2017-08-11T17:50:16.740Z,12.10
2017-08-11T17:52:44.226Z,13.37
2017-08-11T17:55:11.716Z,11.60
2017-08-11T17:57:39.238Z,13.13
2017-08-11T18:00:06.692Z,10.80
2017-08-11T18:02:34.188Z,15.40
2017-08-11T18:05:02.467Z,16.70
2017-08-11T18:07:30.705Z,13.20
2017-08-11T18:09:58.248Z,13.40
2017-08-11T18:12:25.715Z,14.93
2017-08-11T18:14:53.183Z,15.73
2017-08-11T18:17:20.664Z,14.33
2017-08-11T18:19:48.887Z,16.80
2017-08-11T18:22:16.398Z,15.30
2017-08-11T18:24:44.654Z,16.10
2017-08-11T18:27:12.136Z,14.93
2017-08-11T18:29:39.618Z,14.93
2017-08-11T18:32:07.109Z,17.57
2017-08-11T18:34:34.612Z,17.70
2017-08-11T18:37:02.134Z,17.40
2017-08-11T18:39:29.633Z,18.90
2017-08-11T18:41:57.133Z,19.90
2017-08-11T18:44:24.587Z,16.20
2017-08-11T18:46:52.040Z,20.93
2017-08-11T18:49:19.539Z,17.77
2017-08-11T18:51:47.785Z,20.50
2017-08-11T18:54:15.272Z,22.00
2017-08-11T18:56:43.592Z,18.03
2017-08-11T18:59:11.141Z,20.80
2017-08-11T19:01:38.593Z,22.47
2017-08-11T19:04:07.003Z,24.17
2017-08-11T19:06:34.493Z,22.17
2017-08-11T19:09:02.920Z,18.60
2017-08-11T19:11:30.573Z,21.67
2017-08-11T19:13:58.185Z,21.87
2017-08-11T19:16:26.551Z,17.60
2017-08-11T19:18:54.068Z,21.57
2017-08-11T19:21:21.938Z,20.87
2017-08-11T19:23:49.453Z,20.90
2017-08-11T19:26:18.072Z,23.37
2017-08-11T19:28:45.615Z,21.87
2017-08-11T19:31:13.125Z,24.50
2017-08-11T19:33:40.666Z,24.73
2017-08-11T19:36:08.202Z,21.93
2017-08-11T19:38:35.706Z,23.70
2017-08-11T19:41:03.628Z,21.10
2017-08-11T19:43:31.274Z,18.30
2017-08-11T19:45:58.796Z,23.13
2017-08-11T19:48:26.406Z,22.77
2017-08-11T19:50:54.380Z,23.67
2017-08-11T19:53:22.243Z,22.37
2017-08-11T19:55:50.208Z,26.37
2017-08-11T19:58:18.175Z,25.67
2017-08-11T20:00:46.042Z,26.03
2017-08-11T20:03:13.915Z,24.73
2017-08-11T20:05:41.494Z,25.57
2017-08-11T20:08:09.331Z,24.53
2017-08-11T20:10:36.933Z,24.43
2017-08-11T20:13:04.547Z,27.37
2017-08-11T20:15:32.314Z,27.50
2017-08-11T20:17:59.827Z,26.83
2017-08-11T20:20:28.060Z,22.40
2017-08-11T20:22:55.694Z,22.73
2017-08-11T20:25:23.208Z,26.27
2017-08-11T20:27:50.809Z,22.47
2017-08-11T20:30:18.408Z,26.33
2017-08-11T20:32:45.897Z,24.73
2017-08-11T20:35:13.413Z,25.93
2017-08-11T20:37:40.905Z,27.37
2017-08-11T20:40:08.411Z,23.57
2017-08-11T20:42:35.955Z,25.40
2017-08-11T20:45:03.469Z,27.07
2017-08-11T20:47:31.787Z,22.80
2017-08-11T20:49:59.317Z,23.77
2017-08-11T20:52:27.618Z,24.03
2017-08-11T20:54:55.111Z,22.67
2017-08-11T20:57:22.624Z,19.90
2017-08-11T20:59:50.153Z,18.63
2017-08-11T21:02:17.688Z,21.43
2017-08-11T21:04:45.195Z,19.23
2017-08-11T21:07:13.488Z,19.80
2017-08-11T21:09:41.036Z,20.17
2017-08-11T21:12:08.562Z,18.90
2017-08-11T21:14:36.069Z,18.47
2017-08-11T21:17:03.592Z,19.37
2017-08-11T21:19:31.888Z,20.63
2017-08-11T21:21:59.396Z,21.37
2017-08-11T21:24:26.919Z,23.27
2017-08-11T21:26:54.432Z,23.13
2017-08-11T21:29:22.748Z,23.47
2017-08-11T21:31:50.259Z,24.40
2017-08-11T21:34:18.531Z,23.60
2017-08-11T21:36:46.360Z,24.20
2017-08-11T21:39:13.889Z,25.50
2017-08-11T21:41:41.410Z,26.63
2017-08-11T21:44:08.940Z,28.50
2017-08-11T21:46:36.559Z,27.40
2017-08-11T21:49:04.102Z,24.43
2017-08-11T21:51:32.365Z,22.27
2017-08-11T21:53:59.912Z,25.50
2017-08-11T21:56:27.441Z,29.20
2017-08-11T21:58:55.028Z,24.70
2017-08-11T22:01:22.576Z,23.77
2017-08-11T22:03:50.088Z,25.43
2017-08-11T22:06:17.645Z,25.23
2017-08-11T22:08:45.215Z,24.40
2017-08-11T22:11:12.755Z,23.50
2017-08-11T22:13:40.274Z,23.70
2017-08-11T22:16:07.761Z,21.77
2017-08-11T22:18:36.061Z,25.63
2017-08-11T22:21:03.593Z,25.67
2017-08-11T22:23:31.900Z,19.20
2017-08-11T22:25:59.396Z,24.23
2017-08-11T22:28:26.896Z,21.23
2017-08-11T22:30:54.441Z,23.47
2017-08-11T22:33:22.724Z,20.07
2017-08-11T22:35:51.013Z,17.70
2017-08-11T22:38:18.545Z,18.17
2017-08-11T22:40:46.860Z,18.43
2017-08-11T22:43:14.404Z,16.30
2017-08-11T22:45:41.901Z,18.90
2017-08-11T22:48:09.397Z,19.27
2017-08-11T22:50:37.802Z,16.13
2017-08-11T22:53:05.348Z,17.27
2017-08-11T22:55:32.889Z,18.63
2017-08-11T22:58:01.149Z,18.63
2017-08-11T23:00:28.660Z,19.40
2017-08-11T23:02:56.193Z,17.63
2017-08-11T23:05:23.706Z,16.10
2017-08-11T23:07:51.220Z,17.30
2017-08-11T23:10:18.716Z,19.30
2017-08-11T23:12:46.229Z,16.67
2017-08-11T23:15:13.769Z,12.30
2017-08-11T23:17:42.073Z,15.23
2017-08-11T23:20:09.613Z,12.33
2017-08-11T23:22:37.110Z,14.97
2017-08-11T23:25:04.642Z,14.10
2017-08-11T23:27:32.188Z,15.47
2017-08-11T23:29:59.676Z,14.70
2017-08-11T23:32:27.193Z,16.90
2017-08-11T23:34:55.462Z,15.17
2017-08-11T23:37:23.750Z,12.57
2017-08-11T23:39:51.260Z,14.90
2017-08-11T23:42:18.792Z,14.77
2017-08-11T23:44:46.288Z,13.07
2017-08-11T23:47:13.780Z,15.90
2017-08-11T23:49:42.057Z,14.10
2017-08-11T23:52:09.628Z,14.03
2017-08-11T23:54:37.140Z,15.67
2017-08-11T23:57:04.649Z,15.87
2017-08-11T23:59:32.213Z,12.17
